Kanab, UT (84741)

9:41 AM MST on December 20, 2014 (GMT -0700)
RAWS TELEGRAPH FLAT UT US | Change Station
CLOSE
Current Station
Personal Weather Station
Location: Kanab, UT
Elevation: 5459 ft
Nearby Weather Stations

Elev 5459 ft 37.19 °N, 112.03 °W | Updated 44 minutes ago

Partly Cloudy
Partly Cloudy
32 °F
Feels Like 32 °F
N
2
Wind Variable Wind from NNE
Gusts 5.0 mph

Today
High -- | Low -- °F
--% Chance of Precip.
Yesterday
High -- | Low -- °F
Precip. -- in
7:37 AM 5:14 PM
Waning Crescent, 2% visible
Pressure 30.20 in
Visibility 10.0 miles
Clouds Mostly Cloudy 2300 ft
Windchill 32 °F
Dew Point 30 °F
Humidity 94%
Rainfall 0.00 in
Snow Depth Not available.
UV 0 out of 12
Pollen .30 out of 12
Air Quality Not available.
Flu Activity Not available.
SPECI KPGA 201608Z AUTO 20005KT 10SM BKN023 03/M02 A3020 RMK AO2 T00331017 TSNO

More Conditions Fewer Conditions

Pressure 30.20 in
Visibility 10.0 miles
Clouds Mostly Cloudy 2300 ft
Windchill 32 °F
Dew Point 30 °F
Humidity 94%
Rainfall 0.00 in
Snow Depth Not available.
UV 0 out of 12
Pollen .30 out of 12
Air Quality Not available.
Flu Activity Not available.
SPECI KPGA 201608Z AUTO 20005KT 10SM BKN023 03/M02 A3020 RMK AO2 T00331017 TSNO

More Conditions Fewer Conditions

10-Day Weather Forecast

Almanac

Astronomy

Dec. 20, 2014 Rise Set
Actual Time
Civil Twilight
Nautical Twilight
Astronomical Twilight
Moon
Length of Visible Light
Length of Day
Tomorrow will be .
, % of the Moon is Illuminated

Today's Extremes

State Highs State Lows

Community

WunderPhotos

Upload Photos

1,779,221 photos uploaded!

WunderBlogs® & News

Nearby

Air Quality

  Air Quality AQ Index Pollutant
Not available.

Snow Depth

Station Depth Elevation

Earthquake Activity

City Distance Mag. Time & Date
Minimum magnitude displayed is 2.5.

Coastal Water Temperatures

Place Temperature

Nearby Weather Stations